Date,TemperatureHighF,TemperatureAvgF,TemperatureLowF,DewpointHighF,DewpointAvgF,DewpointLowF,HumidityHigh,HumidityAvg,HumidityLow,PressureMaxIn,PressureMinIn,WindSpeedMaxMPH,WindSpeedAvgMPH,GustSpeedMaxMPH,PrecipitationSumIn
2014-3-1,7.6,2.0,-3.7,2.0,-9.7,-22.0,78,59,40,30.49,30.12,7,2,0,0.00
2014-3-2,3.4,-5.7,-15.6,-18.0,-23.3,-29.0,59,43,32,30.58,30.48,6,1,0,0.00
2014-3-3,12.8,-3.0,-26.3,1.0,-16.7,-35.0,75,54,34,30.57,30.27,4,0,0,0.00
2014-3-4,21.6,13.2,7.4,7.0,3.8,0.0,80,67,51,30.28,30.17,2,0,0,0.00
2014-3-5,26.6,16.0,4.8,7.0,2.1,-3.0,81,56,35,30.46,30.29,6,1,0,0.01
2014-3-6,32.1,18.1,2.6,17.0,8.1,-6.0,78,66,52,30.39,29.86,7,1,0,0.00
2014-3-7,36.2,29.2,21.8,28.0,23.5,15.0,87,79,70,30.08,29.76,5,1,0,0.00
2014-3-8,32.5,24.9,15.2,22.0,13.6,7.0,77,63,49,30.25,30.09,6,1,0,0.00
2014-3-9,47.4,31.1,11.4,32.0,20.5,6.0,85,66,45,30.16,29.59,8,1,0,0.01
2014-3-10,56.3,42.3,25.8,35.0,30.8,23.0,96,66,42,29.61,29.53,7,1,0,0.00
2014-3-11,44.1,39.5,33.7,31.0,24.9,17.0,77,58,35,29.87,29.59,6,1,0,0.00
2014-3-12,33.4,24.2,10.9,18.0,9.0,2.0,73,53,35,30.09,29.87,9,2,0,0.00
2014-3-13,47.1,29.9,9.0,32.0,19.8,3.0,86,67,48,30.04,29.49,8,1,0,0.00
2014-3-14,44.6,37.0,27.9,33.0,27.6,17.0,95,69,51,29.85,29.39,9,2,0,0.00
2014-3-15,32.2,25.7,17.0,17.0,11.6,2.0,72,56,39,30.39,29.86,5,1,0,0.00
2014-3-16,29.1,16.9,6.3,7.0,0.0,-4.0,65,49,29,30.48,30.06,4,1,0,0.00
2014-3-17,33.7,24.0,18.4,20.0,13.5,5.0,83,65,51,30.05,29.62,5,1,0,0.07
2014-3-18,39.1,31.2,21.4,30.0,23.1,15.0,86,72,57,29.72,29.66,4,1,0,0.02
2014-3-19,33.7,32.1,28.8,30.0,26.1,21.0,93,79,62,29.90,29.65,7,2,0,0.06
2014-3-20,44.8,32.7,24.1,29.0,23.3,19.0,84,70,47,30.00,29.90,6,0,0,0.00
2014-3-21,43.1,32.6,21.1,32.0,24.9,18.0,92,75,52,29.95,29.67,9,2,0,0.00
2014-3-22,33.4,19.9,12.8,27.0,7.1,0.0,77,58,42,30.44,29.95,9,3,0,0.00
2014-3-23,22.7,12.9,3.2,6.0,1.1,-4.0,75,60,46,30.50,30.35,7,1,0,0.00
2014-3-24,30.9,17.1,1.1,25.0,8.5,-4.0,88,70,49,30.36,30.04,5,1,0,0.05
2014-3-25,22.2,14.8,5.6,10.0,-0.7,-6.0,70,51,39,30.23,30.03,10,2,0,0.00
2014-3-26,37.9,20.7,-1.6,22.0,8.4,-7.0,86,62,39,30.19,29.67,9,2,0,0.00
2014-3-27,38.3,35.1,31.6,35.0,31.4,22.0,96,87,59,29.66,29.41,11,1,0,0.30
2014-3-28,40.3,33.1,28.4,30.0,22.5,19.0,94,67,46,30.16,29.57,6,1,0,0.08
2014-3-29,47.7,34.4,20.6,27.0,21.8,17.0,87,62,39,30.24,30.09,5,0,0,0.00
2014-3-30,58.4,43.9,26.3,37.0,31.2,22.0,89,63,39,30.09,29.78,5,1,0,0.00
2014-3-31,59.0,47.9,39.5,43.0,36.9,31.0,77,66,51,29.78,29.32,9,1,0,0.01